Time;durP1;ratioP1;P1;durP2;ratioP2;P2;SDS_P1;SDS_P2;PMS_P1;PMS_P2;Temp;Humidity;BMP_temperature;BMP_pressure;BME280_temperature;BME280_humidity;BME280_pressure;Samples;Min_cycle;Max_cycle;Signal;HPM_P1;HPM_P2
2024/03/31 05:20:32;;;;;;;;;;;;;;;;;;3232973;26;19953;-41
2024/03/31 05:22:58;;;;;;;;;;;;;;;;;;4972333;28;19922;-42
2024/03/31 05:25:24;;;;;;;;;;;;;;;;;;4971996;28;20432;-41
2024/03/31 05:27:50;;;;;;;;;;;;;;;;;;4972509;28;19914;-41
2024/03/31 05:30:16;;;;;;;;;;;;;;;;;;4971876;28;19910;-42
2024/03/31 05:32:42;;;;;;;;;;;;;;;;;;4972253;28;19910;-41
2024/03/31 05:35:07;;;;;;;;;;;;;;;;;;4972016;28;19917;-41
2024/03/31 05:37:33;;;;;;;;;;;;;;;;;;4972139;28;20181;-41
2024/03/31 05:39:59;;;;;;;;;;;;;;;;;;4971894;28;19936;-41
2024/03/31 05:42:25;;;;;;;;;;;;;;;;;;4972024;28;20014;-41
2024/03/31 05:44:51;;;;;;;;;;;;;;;;;;4972175;28;20331;-41
2024/03/31 05:47:17;;;;;;;;;;;;;;;;;;4971592;28;20044;-42
2024/03/31 05:49:43;;;;;;;;;;;;;;;;;;4971638;28;20446;-41
2024/03/31 05:52:08;;;;;;;;;;;;;;;;;;4972107;28;19910;-42
2024/03/31 05:54:34;;;;;;;;;;;;;;;;;;4971867;28;19910;-41
2024/03/31 05:57:00;;;;;;;;;;;;;;;;;;4970179;28;19910;-41
2024/03/31 05:59:26;;;;;;;;;;;;;;;;;;4971004;28;20442;-41
2024/03/31 06:01:52;;;;;;;;;;;;;;;;;;4971945;28;19917;-41
2024/03/31 06:04:18;;;;;;;;;;;;;;;;;;4971769;28;20426;-42
2024/03/31 06:06:44;;;;;;;;;;;;;;;;;;4971537;28;19921;-41
2024/03/31 06:09:10;;;;;;;;;;;;;;;;;;4971734;28;19914;-41
2024/03/31 06:11:35;;;;;;;;;;;;;;;;;;4971588;28;19915;-42
2024/03/31 06:14:02;;;;;;;;;;;;;;;;;;4971850;28;20368;-41
2024/03/31 06:16:28;;;;;;;;;;;;;;;;;;4971477;28;20356;-41
2024/03/31 06:18:54;;;;;;;;;;;;;;;;;;4972009;28;19972;-42
2024/03/31 06:21:20;;;;;;;;;;;;;;;;;;4971593;28;19929;-41
2024/03/31 06:23:45;;;;;;;;;;;;;;;;;;4971655;28;19972;-41
2024/03/31 06:26:11;;;;;;;;;;;;;;;;;;4971516;28;19933;-41
2024/03/31 06:28:37;;;;;;;;;;;;;;;;;;4971853;28;19910;-42
2024/03/31 06:31:03;;;;;;;;;;;;;;;;;;4971571;28;19910;-42
2024/03/31 06:33:29;;;;;;;;;;;;;;;;;;4971632;28;19914;-42
2024/03/31 06:35:55;;;;;;;;;;;;;;;;;;4971746;28;20277;-42
2024/03/31 06:38:21;;;;;;;;;;;;;;;;;;4972560;28;19953;-41
2024/03/31 06:40:47;;;;;;;;;;;;;;;;;;4975106;28;19914;-41
2024/03/31 06:43:12;;;;;;;;;;;;;;;;;;4975230;28;19914;-41
2024/03/31 06:45:38;;;;;;;;;;;;;;;;;;4975216;28;19949;-42
2024/03/31 06:48:04;;;;;;;;;;;;;;;;;;4974962;28;19910;-42
2024/03/31 06:50:30;;;;;;;;;;;;;;;;;;4974952;28;19917;-46
2024/03/31 06:52:56;;;;;;;;;;;;;;;;;;4975280;28;19917;-46
2024/03/31 06:55:22;;;;;;;;;;;;;;;;;;4975207;28;19965;-48
2024/03/31 06:57:48;;;;;;;;;;;;;;;;;;4974707;28;19941;-46
2024/03/31 07:00:14;;;;;;;;;;;;;;;;;;4974973;28;19917;-46
2024/03/31 07:02:40;;;;;;;;;;;;;;;;;;4974674;28;20370;-47
2024/03/31 07:05:05;;;;;;;;;;;;;;;;;;4974834;28;19910;-45
2024/03/31 07:07:31;;;;;;;;;;;;;;;;;;4974570;28;19918;-45
2024/03/31 07:09:57;;;;;;;;;;;;;;;;;;4975006;28;19914;-47
2024/03/31 07:12:23;;;;;;;;;;;;;;;;;;4974940;28;20454;-44
2024/03/31 07:14:49;;;;;;;;;;;;;;;;;;4974615;28;19915;-45
2024/03/31 07:17:15;;;;;;;;;;;;;;;;;;4974496;28;19939;-44
2024/03/31 07:19:41;;;;;;;;;;;;;;;;;;4973574;28;19914;-49
2024/03/31 07:22:07;;;;;;;;;;;;;;;;;;4974572;28;19918;-48
2024/03/31 07:24:33;;;;;;;;;;;;;;;;;;4975260;28;19910;-47
2024/03/31 07:26:58;;;;;;;;;;;;;;;;;;4971495;28;19914;-45
2024/03/31 07:29:24;;;;;;;;;;;;;;;;;;4975205;28;19910;-49
2024/03/31 07:31:50;;;;;;;;;;;;;;;;;;4974980;28;19910;-45
2024/03/31 07:34:16;;;;;;;;;;;;;;;;;;4974757;28;19910;-45
2024/03/31 07:36:42;;;;;;;;;;;;;;;;;;4974870;28;20026;-45
2024/03/31 07:39:08;;;;;;;;;;;;;;;;;;4974884;28;19910;-48
2024/03/31 07:41:34;;;;;;;;;;;;;;;;;;4974967;28;19910;-46
2024/03/31 07:44:00;;;;;;;;;;;;;;;;;;4974875;28;19922;-49
2024/03/31 07:46:25;;;;;;;;;;;;;;;;;;4974604;28;19914;-49
2024/03/31 07:48:53;;;;;;;;;;;;;;;;;;4974702;28;19937;-48
2024/03/31 07:51:19;;;;;;;;;;;;;;;;;;4974814;28;20009;-48
2024/03/31 07:53:45;;;;;;;;;;;;;;;;;;4973376;28;20009;-49
2024/03/31 07:56:11;;;;;;;;;;;;;;;;;;4973334;28;20587;-46
2024/03/31 07:58:37;;;;;;;;;;;;;;;;;;4974569;28;19957;-46
2024/03/31 08:01:03;;;;;;;;;;;;;;;;;;4973502;28;19918;-48
2024/03/31 08:03:28;;;;;;;;;;;;;;;;;;4973400;28;19926;-48
2024/03/31 08:05:54;;;;;;;;;;;;;;;;;;4972765;28;20324;-47
2024/03/31 08:08:21;;;;;;;;;;;;;;;;;;4972447;28;20006;-46
2024/03/31 08:10:46;;;;;;;;;;;;;;;;;;4973668;28;19917;-47
2024/03/31 08:13:12;;;;;;;;;;;;;;;;;;4972878;28;19914;-47
2024/03/31 08:15:38;;;;;;;;;;;;;;;;;;4973333;28;20000;-49
2024/03/31 08:18:04;;;;;;;;;;;;;;;;;;4973166;28;20299;-49
2024/03/31 08:20:31;;;;;;;;;;;;;;;;;;4973550;28;19910;-46
2024/03/31 08:22:57;;;;;;;;;;;;;;;;;;4973600;28;19914;-48
2024/03/31 08:25:23;;;;;;;;;;;;;;;;;;4973400;28;20004;-44
2024/03/31 08:27:49;;;;;;;;;;;;;;;;;;4972020;28;19922;-48
2024/03/31 08:30:15;;;;;;;;;;;;;;;;;;4972566;28;19918;-48
2024/03/31 08:32:40;;;;;;;;;;;;;;;;;;4968574;28;20001;-47
2024/03/31 08:35:06;;;;;;;;;;;;;;;;;;4971354;28;19911;-45
2024/03/31 08:37:32;;;;;;;;;;;;;;;;;;4972866;28;19914;-47
2024/03/31 08:39:58;;;;;;;;;;;;;;;;;;4971517;28;19914;-48
2024/03/31 08:42:24;;;;;;;;;;;;;;;;;;4972331;28;20053;-48
2024/03/31 08:44:50;;;;;;;;;;;;;;;;;;4969697;28;19941;-47
2024/03/31 08:47:16;;;;;;;;;;;;;;;;;;4972566;28;19914;-46
2024/03/31 08:49:42;;;;;;;;;;;;;;;;;;4972380;28;19910;-45
2024/03/31 08:52:08;;;;;;;;;;;;;;;;;;4960854;28;19910;-45
2024/03/31 08:54:34;;;;;;;;;;;;;;;;;;4971153;28;19945;-48
2024/03/31 08:57:00;;;;;;;;;;;;;;;;;;4973018;28;19914;-49
2024/03/31 08:59:25;;;;;;;;;;;;;;;;;;4972597;28;19910;-48
2024/03/31 09:01:51;;;;;;;;;;;;;;;;;;4971979;28;19914;-48
2024/03/31 09:04:17;;;;;;;;;;;;;;;;;;4955827;28;19941;-48
2024/03/31 09:06:43;;;;;;;;;;;;;;;;;;4953306;29;20365;-45
2024/03/31 09:09:09;;;;;;;;;;;;;;;;;;4962907;28;19922;-44
2024/03/31 09:11:35;;;;;;;;;;;;;;;;;;4972213;28;20269;-44
2024/03/31 09:14:01;;;;;;;;;;;;;;;;;;4971489;28;19917;-43
2024/03/31 09:16:27;;;;;;;;;;;;;;;;;;4964449;28;19958;-44
2024/03/31 09:18:53;;;;;;;;;;;;;;;;;;4952775;29;19996;-44
2024/03/31 09:21:19;;;;;;;;;;;;;;;;;;4954460;28;20017;-44
2024/03/31 09:23:45;;;;;;;;;;;;;;;;;;4971718;28;19922;-44
2024/03/31 09:26:11;;;;;;;;;;;;;;;;;;4972118;28;19910;-44
2024/03/31 09:28:37;;;;;;;;;;;;;;;;;;4959383;28;20380;-44
2024/03/31 09:31:03;;;;;;;;;;;;;;;;;;4952782;29;20335;-45
2024/03/31 09:33:29;;;;;;;;;;;;;;;;;;4961091;28;19910;-45
2024/03/31 09:35:56;;;;;;;;;;;;;;;;;;4967636;28;19921;-44
2024/03/31 09:38:22;;;;;;;;;;;;;;;;;;4964241;28;19960;-44
2024/03/31 09:40:48;;;;;;;;;;;;;;;;;;4971958;28;19910;-45
2024/03/31 09:43:14;;;;;;;;;;;;;;;;;;4970821;28;19980;-44
2024/03/31 09:45:40;;;;;;;;;;;;;;;;;;4970705;28;19914;-44
2024/03/31 09:48:06;;;;;;;;;;;;;;;;;;4969496;28;19914;-45
2024/03/31 09:50:31;;;;;;;;;;;;;;;;;;4971971;28;20004;-44
2024/03/31 09:52:57;;;;;;;;;;;;;;;;;;4972071;28;20395;-43
2024/03/31 09:55:23;;;;;;;;;;;;;;;;;;4970459;28;19918;-46
2024/03/31 09:57:49;;;;;;;;;;;;;;;;;;4970476;28;20443;-44
2024/03/31 10:00:15;;;;;;;;;;;;;;;;;;4971266;28;19933;-45
2024/03/31 10:02:41;;;;;;;;;;;;;;;;;;4971570;28;19913;-44
2024/03/31 10:05:07;;;;;;;;;;;;;;;;;;4971732;28;19927;-45
2024/03/31 10:07:33;;;;;;;;;;;;;;;;;;4971508;28;19914;-44
2024/03/31 10:09:59;;;;;;;;;;;;;;;;;;4971482;28;19922;-44
2024/03/31 10:12:24;;;;;;;;;;;;;;;;;;4971522;28;19949;-44
2024/03/31 10:14:50;;;;;;;;;;;;;;;;;;4974516;28;19918;-44
2024/03/31 10:17:16;;;;;;;;;;;;;;;;;;4973555;28;20291;-46
2024/03/31 10:19:42;;;;;;;;;;;;;;;;;;4961802;28;19910;-48
2024/03/31 10:22:08;;;;;;;;;;;;;;;;;;4956020;29;19919;-48
2024/03/31 10:24:34;;;;;;;;;;;;;;;;;;4956390;29;19914;-46
2024/03/31 10:27:00;;;;;;;;;;;;;;;;;;4956470;29;19910;-45
2024/03/31 10:29:26;;;;;;;;;;;;;;;;;;4955762;29;19910;-47
2024/03/31 10:31:52;;;;;;;;;;;;;;;;;;4973578;28;20288;-48
2024/03/31 10:34:17;;;;;;;;;;;;;;;;;;4974333;28;19962;-48
2024/03/31 10:36:43;;;;;;;;;;;;;;;;;;4974358;28;20363;-45
2024/03/31 10:39:09;;;;;;;;;;;;;;;;;;4966955;28;19914;-49
2024/03/31 10:41:35;;;;;;;;;;;;;;;;;;4975228;28;19910;-44
2024/03/31 10:44:01;;;;;;;;;;;;;;;;;;4975227;28;19915;-46
2024/03/31 10:46:28;;;;;;;;;;;;;;;;;;4974479;28;20165;-48
2024/03/31 10:48:54;;;;;;;;;;;;;;;;;;4969917;28;19914;-45
2024/03/31 10:51:20;;;;;;;;;;;;;;;;;;4975006;28;19910;-47
2024/03/31 10:53:46;;;;;;;;;;;;;;;;;;4974810;28;19957;-46
2024/03/31 10:56:12;;;;;;;;;;;;;;;;;;4974705;28;19982;-45
2024/03/31 10:58:38;;;;;;;;;;;;;;;;;;4974645;28;19910;-44
2024/03/31 11:01:03;;;;;;;;;;;;;;;;;;4974832;28;19910;-47
2024/03/31 11:03:30;;;;;;;;;;;;;;;;;;4974989;28;19965;-46
2024/03/31 11:05:56;;;;;;;;;;;;;;;;;;4973409;28;20008;-45
2024/03/31 11:08:22;;;;;;;;;;;;;;;;;;4973317;28;20016;-43
2024/03/31 11:10:47;;;;;;;;;;;;;;;;;;4970106;28;19914;-46
2024/03/31 11:13:13;;;;;;;;;;;;;;;;;;4969863;28;19915;-43
2024/03/31 11:15:39;;;;;;;;;;;;;;;;;;4971016;28;19971;-44
2024/03/31 11:18:05;;;;;;;;;;;;;;;;;;4968640;28;20384;-44
2024/03/31 11:20:31;;;;;;;;;;;;;;;;;;4971609;28;19921;-45
2024/03/31 11:22:57;;;;;;;;;;;;;;;;;;4971712;28;19973;-45
2024/03/31 11:25:23;;;;;;;;;;;;;;;;;;4972425;28;20253;-44
2024/03/31 11:27:49;;;;;;;;;;;;;;;;;;4970894;28;19918;-44
2024/03/31 11:30:15;;;;;;;;;;;;;;;;;;4971744;28;20005;-43
2024/03/31 11:32:41;;;;;;;;;;;;;;;;;;4955024;28;20212;-43
2024/03/31 11:35:07;;;;;;;;;;;;;;;;;;4954281;28;19930;-46
2024/03/31 11:37:33;;;;;;;;;;;;;;;;;;4972034;28;19911;-43
2024/03/31 11:39:58;;;;;;;;;;;;;;;;;;4972075;28;20388;-44
2024/03/31 11:42:25;;;;;;;;;;;;;;;;;;4971714;28;19911;-44
2024/03/31 11:44:51;;;;;;;;;;;;;;;;;;4969033;28;19914;-45
2024/03/31 11:47:17;;;;;;;;;;;;;;;;;;4970123;28;19921;-47
2024/03/31 11:49:42;;;;;;;;;;;;;;;;;;4968562;28;20391;-47
2024/03/31 11:52:08;;;;;;;;;;;;;;;;;;4972461;28;19921;-44
2024/03/31 11:54:34;;;;;;;;;;;;;;;;;;4973412;28;19914;-44
2024/03/31 11:57:00;;;;;;;;;;;;;;;;;;4971096;28;19922;-47
2024/03/31 11:59:26;;;;;;;;;;;;;;;;;;4953183;28;20016;-45
2024/03/31 12:01:52;;;;;;;;;;;;;;;;;;4972177;28;19918;-47
2024/03/31 12:04:18;;;;;;;;;;;;;;;;;;4971878;28;19918;-48
2024/03/31 12:06:44;;;;;;;;;;;;;;;;;;4954112;28;19985;-49
2024/03/31 12:09:09;;;;;;;;;;;;;;;;;;4973562;28;19914;-49
2024/03/31 12:11:35;;;;;;;;;;;;;;;;;;4970779;28;19922;-47
2024/03/31 12:14:02;;;;;;;;;;;;;;;;;;4973492;28;19953;-45
2024/03/31 12:16:28;;;;;;;;;;;;;;;;;;4973252;28;19910;-46
2024/03/31 12:18:54;;;;;;;;;;;;;;;;;;4972382;28;19911;-45
2024/03/31 12:21:20;;;;;;;;;;;;;;;;;;4972884;28;19922;-46
2024/03/31 12:23:46;;;;;;;;;;;;;;;;;;4972224;28;19915;-45
2024/03/31 12:26:11;;;;;;;;;;;;;;;;;;4941468;28;19921;-45
2024/03/31 12:28:37;;;;;;;;;;;;;;;;;;4959140;28;19914;-44
2024/03/31 12:31:03;;;;;;;;;;;;;;;;;;4968831;28;20376;-46
2024/03/31 12:33:29;;;;;;;;;;;;;;;;;;4969295;28;19996;-47
2024/03/31 12:35:59;;;;;;;;;;;;;;;;;;4968936;28;19914;-47
2024/03/31 12:38:25;;;;;;;;;;;;;;;;;;4970198;28;19929;-45
2024/03/31 12:40:51;;;;;;;;;;;;;;;;;;4968921;28;19914;-48
2024/03/31 12:43:16;;;;;;;;;;;;;;;;;;4970921;28;19918;-46
2024/03/31 12:45:42;;;;;;;;;;;;;;;;;;4953389;28;19953;-45
2024/03/31 12:48:08;;;;;;;;;;;;;;;;;;4969177;28;19915;-45
2024/03/31 12:50:34;;;;;;;;;;;;;;;;;;4970015;28;19914;-45
2024/03/31 12:53:00;;;;;;;;;;;;;;;;;;4971497;28;19969;-48
2024/03/31 12:55:26;;;;;;;;;;;;;;;;;;4970565;28;19938;-45
2024/03/31 12:57:52;;;;;;;;;;;;;;;;;;4970232;28;20434;-48
2024/03/31 13:00:17;;;;;;;;;;;;;;;;;;4970317;28;19914;-46
2024/03/31 13:02:43;;;;;;;;;;;;;;;;;;4969539;28;20383;-44
2024/03/31 13:05:09;;;;;;;;;;;;;;;;;;4970632;28;19918;-46
2024/03/31 13:07:35;;;;;;;;;;;;;;;;;;4967017;28;19914;-46
2024/03/31 13:10:02;;;;;;;;;;;;;;;;;;4967867;28;20032;-47
2024/03/31 13:12:28;;;;;;;;;;;;;;;;;;4953544;28;19945;-46
2024/03/31 13:14:54;;;;;;;;;;;;;;;;;;4967132;28;19962;-48
2024/03/31 13:17:19;;;;;;;;;;;;;;;;;;4969650;28;19918;-46
2024/03/31 13:19:45;;;;;;;;;;;;;;;;;;4971059;28;19910;-46
2024/03/31 13:22:11;;;;;;;;;;;;;;;;;;4967750;28;19940;-44
2024/03/31 13:24:37;;;;;;;;;;;;;;;;;;4966985;28;20025;-47
2024/03/31 13:27:03;;;;;;;;;;;;;;;;;;4970484;28;20308;-45
2024/03/31 13:29:30;;;;;;;;;;;;;;;;;;4970602;28;19922;-45
2024/03/31 13:31:56;;;;;;;;;;;;;;;;;;4953140;28;20459;-44
2024/03/31 13:34:21;;;;;;;;;;;;;;;;;;4970923;28;19972;-45
2024/03/31 13:36:47;;;;;;;;;;;;;;;;;;4970372;28;19957;-45
2024/03/31 13:39:14;;;;;;;;;;;;;;;;;;4954057;28;19910;-45
2024/03/31 13:41:40;;;;;;;;;;;;;;;;;;4969581;28;19918;-45
2024/03/31 13:44:06;;;;;;;;;;;;;;;;;;4967696;28;19981;-45
2024/03/31 13:46:32;;;;;;;;;;;;;;;;;;4968459;28;19914;-45
2024/03/31 13:48:57;;;;;;;;;;;;;;;;;;4970218;28;19990;-45
2024/03/31 13:51:23;;;;;;;;;;;;;;;;;;4969533;28;19937;-46
2024/03/31 13:53:49;;;;;;;;;;;;;;;;;;4969658;28;19961;-45
2024/03/31 13:56:15;;;;;;;;;;;;;;;;;;4968898;28;20607;-47
2024/03/31 13:58:41;;;;;;;;;;;;;;;;;;4968814;28;19961;-45
2024/03/31 14:01:07;;;;;;;;;;;;;;;;;;4967321;28;19950;-47
2024/03/31 14:03:33;;;;;;;;;;;;;;;;;;4971088;28;19914;-45
2024/03/31 14:05:59;;;;;;;;;;;;;;;;;;4970293;28;20384;-47
2024/03/31 14:08:25;;;;;;;;;;;;;;;;;;4968437;28;19914;-46
2024/03/31 14:10:51;;;;;;;;;;;;;;;;;;4970024;28;19914;-47
2024/03/31 14:13:21;;;;;;;;;;;;;;;;;;4971706;28;20009;-47
2024/03/31 14:15:47;;;;;;;;;;;;;;;;;;4970344;28;19929;-47
2024/03/31 14:18:13;;;;;;;;;;;;;;;;;;4970507;28;19914;-45
2024/03/31 14:20:38;;;;;;;;;;;;;;;;;;4969521;28;19922;-46
2024/03/31 14:23:04;;;;;;;;;;;;;;;;;;4971513;28;19969;-48
2024/03/31 14:25:32;;;;;;;;;;;;;;;;;;4971885;28;20366;-48
2024/03/31 14:27:58;;;;;;;;;;;;;;;;;;4971216;28;19950;-47
2024/03/31 14:30:24;;;;;;;;;;;;;;;;;;4970719;28;19980;-46
2024/03/31 14:32:50;;;;;;;;;;;;;;;;;;4971362;28;19981;-45
2024/03/31 14:35:16;;;;;;;;;;;;;;;;;;4971191;28;19956;-47
2024/03/31 14:37:42;;;;;;;;;;;;;;;;;;4969139;28;20406;-48
2024/03/31 14:40:10;;;;;;;;;;;;;;;;;;4969959;28;20026;-45
2024/03/31 14:42:36;;;;;;;;;;;;;;;;;;4969463;28;19976;-45
2024/03/31 14:45:02;;;;;;;;;;;;;;;;;;4970964;28;20291;-44
2024/03/31 14:47:28;;;;;;;;;;;;;;;;;;4968745;28;20332;-48
2024/03/31 14:49:54;;;;;;;;;;;;;;;;;;4970597;28;19910;-48
2024/03/31 14:52:20;;;;;;;;;;;;;;;;;;4969124;28;19961;-45
2024/03/31 14:54:46;;;;;;;;;;;;;;;;;;4967773;28;20415;-49
2024/03/31 14:57:12;;;;;;;;;;;;;;;;;;4969469;28;19914;-46
2024/03/31 14:59:38;;;;;;;;;;;;;;;;;;4966514;28;20396;-48
2024/03/31 15:02:04;;;;;;;;;;;;;;;;;;4972280;28;20320;-46
2024/03/31 15:04:29;;;;;;;;;;;;;;;;;;4971124;28;19922;-49
2024/03/31 15:06:55;;;;;;;;;;;;;;;;;;4973328;28;19993;-49
2024/03/31 15:09:21;;;;;;;;;;;;;;;;;;4972045;28;19914;-49
2024/03/31 15:11:47;;;;;;;;;;;;;;;;;;4942244;28;19921;-47
2024/03/31 15:14:13;;;;;;;;;;;;;;;;;;4964411;28;19961;-48
2024/03/31 15:16:39;;;;;;;;;;;;;;;;;;4973011;28;20273;-45
2024/03/31 15:19:05;;;;;;;;;;;;;;;;;;4969970;28;19917;-45
2024/03/31 15:21:31;;;;;;;;;;;;;;;;;;4970925;28;20339;-49
2024/03/31 15:23:56;;;;;;;;;;;;;;;;;;4955860;28;19926;-48
2024/03/31 15:26:22;;;;;;;;;;;;;;;;;;4971645;28;20459;-46
2024/03/31 15:28:48;;;;;;;;;;;;;;;;;;4970906;28;19922;-49
2024/03/31 15:31:14;;;;;;;;;;;;;;;;;;4973096;28;19926;-47
2024/03/31 15:33:40;;;;;;;;;;;;;;;;;;4953796;28;19969;-48
2024/03/31 15:36:06;;;;;;;;;;;;;;;;;;4970017;28;19914;-47
2024/03/31 15:38:32;;;;;;;;;;;;;;;;;;4970357;28;19914;-46
2024/03/31 15:40:58;;;;;;;;;;;;;;;;;;4971186;28;19988;-47
2024/03/31 15:43:24;;;;;;;;;;;;;;;;;;4969964;28;19919;-48
2024/03/31 15:45:50;;;;;;;;;;;;;;;;;;4968912;28;19974;-46
2024/03/31 15:48:16;;;;;;;;;;;;;;;;;;4969794;28;19918;-47
2024/03/31 15:50:42;;;;;;;;;;;;;;;;;;4971861;28;19914;-46
2024/03/31 15:53:08;;;;;;;;;;;;;;;;;;4969874;28;19969;-46
2024/03/31 15:55:33;;;;;;;;;;;;;;;;;;4969831;28;19914;-46
2024/03/31 15:57:59;;;;;;;;;;;;;;;;;;4970763;28;19918;-49
2024/03/31 16:00:26;;;;;;;;;;;;;;;;;;4972261;28;20502;-45
2024/03/31 16:02:52;;;;;;;;;;;;;;;;;;4971347;28;19985;-47
2024/03/31 16:05:18;;;;;;;;;;;;;;;;;;4971227;28;19956;-47
2024/03/31 16:07:44;;;;;;;;;;;;;;;;;;4970348;28;19922;-49
2024/03/31 16:10:10;;;;;;;;;;;;;;;;;;4968479;28;19914;-47
2024/03/31 16:12:36;;;;;;;;;;;;;;;;;;4969677;28;20387;-47
2024/03/31 16:15:01;;;;;;;;;;;;;;;;;;4952430;28;19993;-49
2024/03/31 16:17:27;;;;;;;;;;;;;;;;;;4971232;28;19921;-50
2024/03/31 16:19:53;;;;;;;;;;;;;;;;;;4970124;28;19941;-46
2024/03/31 16:22:19;;;;;;;;;;;;;;;;;;4970255;28;20000;-51
2024/03/31 16:24:46;;;;;;;;;;;;;;;;;;4971910;28;20295;-47
2024/03/31 16:27:12;;;;;;;;;;;;;;;;;;4953077;28;19915;-46
2024/03/31 16:29:38;;;;;;;;;;;;;;;;;;4968645;28;19914;-49
2024/03/31 16:32:04;;;;;;;;;;;;;;;;;;4971191;28;19914;-46
2024/03/31 16:34:30;;;;;;;;;;;;;;;;;;4954007;28;20783;-49
2024/03/31 16:36:56;;;;;;;;;;;;;;;;;;4955580;28;19917;-49
2024/03/31 16:39:22;;;;;;;;;;;;;;;;;;4971968;28;19922;-49
2024/03/31 16:41:48;;;;;;;;;;;;;;;;;;4973432;28;20368;-49
2024/03/31 16:44:13;;;;;;;;;;;;;;;;;;4953851;28;19922;-49
2024/03/31 16:46:39;;;;;;;;;;;;;;;;;;4969213;28;19918;-46
2024/03/31 16:49:05;;;;;;;;;;;;;;;;;;4955024;28;19921;-49
2024/03/31 16:51:31;;;;;;;;;;;;;;;;;;4968371;28;19922;-46
2024/03/31 16:53:59;;;;;;;;;;;;;;;;;;4972633;28;19914;-49
2024/03/31 16:56:24;;;;;;;;;;;;;;;;;;4968049;28;20532;-46
2024/03/31 16:58:50;;;;;;;;;;;;;;;;;;4971254;28;19914;-47
2024/03/31 17:01:16;;;;;;;;;;;;;;;;;;4953501;28;19915;-49
2024/03/31 17:03:42;;;;;;;;;;;;;;;;;;4969513;28;19925;-47
2024/03/31 17:06:08;;;;;;;;;;;;;;;;;;4965135;28;19960;-49
2024/03/31 17:08:34;;;;;;;;;;;;;;;;;;4967976;28;20013;-48
2024/03/31 17:11:00;;;;;;;;;;;;;;;;;;4971743;28;19914;-49
2024/03/31 17:13:27;;;;;;;;;;;;;;;;;;4971278;28;19929;-50
2024/03/31 17:15:53;;;;;;;;;;;;;;;;;;4969638;28;19921;-45
2024/03/31 17:18:19;;;;;;;;;;;;;;;;;;4970272;28;19918;-49
2024/03/31 17:20:45;;;;;;;;;;;;;;;;;;4969842;28;19929;-47
2024/03/31 17:23:11;;;;;;;;;;;;;;;;;;4968461;28;19996;-47
2024/03/31 17:25:37;;;;;;;;;;;;;;;;;;4969724;28;20154;-47
2024/03/31 17:28:02;;;;;;;;;;;;;;;;;;4954427;28;19941;-47
2024/03/31 17:30:28;;;;;;;;;;;;;;;;;;4971017;28;19921;-47
2024/03/31 17:32:56;;;;;;;;;;;;;;;;;;4971858;28;20396;-49
2024/03/31 17:35:22;;;;;;;;;;;;;;;;;;4967900;28;19918;-48
2024/03/31 17:37:48;;;;;;;;;;;;;;;;;;4970726;28;19914;-49
2024/03/31 17:40:14;;;;;;;;;;;;;;;;;;4970491;28;20380;-46
2024/03/31 17:42:40;;;;;;;;;;;;;;;;;;4967795;28;20008;-50
2024/03/31 17:45:05;;;;;;;;;;;;;;;;;;4970721;28;19915;-49
2024/03/31 17:47:31;;;;;;;;;;;;;;;;;;4967826;28;19915;-50
2024/03/31 17:49:57;;;;;;;;;;;;;;;;;;4968647;28;19961;-49
2024/03/31 17:52:23;;;;;;;;;;;;;;;;;;4969024;28;19914;-49
2024/03/31 17:54:50;;;;;;;;;;;;;;;;;;4970830;28;19922;-48
2024/03/31 17:57:15;;;;;;;;;;;;;;;;;;4968304;28;19920;-48
2024/03/31 17:59:41;;;;;;;;;;;;;;;;;;4971099;28;20296;-49
2024/03/31 18:02:07;;;;;;;;;;;;;;;;;;4968582;28;19914;-49
2024/03/31 18:04:33;;;;;;;;;;;;;;;;;;4952260;28;20535;-48
2024/03/31 18:06:59;;;;;;;;;;;;;;;;;;4966378;28;19922;-47
2024/03/31 18:09:25;;;;;;;;;;;;;;;;;;4969121;28;19914;-49
2024/03/31 18:11:51;;;;;;;;;;;;;;;;;;4971673;28;19910;-49
2024/03/31 18:14:17;;;;;;;;;;;;;;;;;;4968421;28;19941;-47
2024/03/31 18:16:43;;;;;;;;;;;;;;;;;;4968862;28;20380;-49
2024/03/31 18:19:09;;;;;;;;;;;;;;;;;;4968293;28;19922;-47
2024/03/31 18:21:35;;;;;;;;;;;;;;;;;;4968162;28;19920;-49
2024/03/31 18:24:01;;;;;;;;;;;;;;;;;;4968602;28;20009;-49
2024/03/31 18:26:27;;;;;;;;;;;;;;;;;;4968940;28;20005;-49
2024/03/31 18:28:53;;;;;;;;;;;;;;;;;;4968257;28;19942;-50
2024/03/31 18:31:19;;;;;;;;;;;;;;;;;;4948476;28;19929;-46
2024/03/31 18:33:44;;;;;;;;;;;;;;;;;;4941678;28;19961;-48
2024/03/31 18:36:10;;;;;;;;;;;;;;;;;;4955448;28;19914;-46
2024/03/31 18:38:36;;;;;;;;;;;;;;;;;;4970371;28;21006;-49
2024/03/31 18:41:03;;;;;;;;;;;;;;;;;;4970777;28;19914;-46
2024/03/31 18:43:29;;;;;;;;;;;;;;;;;;4966885;28;19926;-46
2024/03/31 18:45:55;;;;;;;;;;;;;;;;;;4955734;29;19917;-49
2024/03/31 18:48:22;;;;;;;;;;;;;;;;;;4964386;28;19914;-46
2024/03/31 18:53:32;;;;;;;;;;;;;;;;;;4973320;28;19957;-49
2024/03/31 18:55:58;;;;;;;;;;;;;;;;;;4972305;28;19914;-46
2024/03/31 18:58:25;;;;;;;;;;;;;;;;;;4956698;28;19922;-46
2024/03/31 19:00:51;;;;;;;;;;;;;;;;;;4957909;28;20391;-49
2024/03/31 19:03:17;;;;;;;;;;;;;;;;;;4955262;28;19918;-49
2024/03/31 19:05:43;;;;;;;;;;;;;;;;;;4973336;28;20004;-45
2024/03/31 19:08:09;;;;;;;;;;;;;;;;;;4966420;28;19918;-49
2024/03/31 19:10:35;;;;;;;;;;;;;;;;;;4966350;28;19914;-48
2024/03/31 19:13:00;;;;;;;;;;;;;;;;;;4957363;28;19914;-48
2024/03/31 19:15:26;;;;;;;;;;;;;;;;;;4961380;28;19949;-49
2024/03/31 19:17:52;;;;;;;;;;;;;;;;;;4971638;28;20431;-48
2024/03/31 19:20:18;;;;;;;;;;;;;;;;;;4971865;28;20002;-48
2024/03/31 19:22:45;;;;;;;;;;;;;;;;;;4968304;28;20016;-48
2024/03/31 19:25:15;;;;;;;;;;;;;;;;;;4970726;28;19914;-45
2024/03/31 19:27:41;;;;;;;;;;;;;;;;;;4968243;28;19914;-49
2024/03/31 19:30:07;;;;;;;;;;;;;;;;;;4971543;28;19918;-48
2024/03/31 19:32:33;;;;;;;;;;;;;;;;;;4972050;28;19929;-49
2024/03/31 19:34:58;;;;;;;;;;;;;;;;;;4952947;28;19918;-47
2024/03/31 19:37:24;;;;;;;;;;;;;;;;;;4970899;28;19918;-47
2024/03/31 19:39:50;;;;;;;;;;;;;;;;;;4966426;28;19914;-49
2024/03/31 19:42:20;;;;;;;;;;;;;;;;;;4970624;28;20013;-46
2024/03/31 19:44:45;;;;;;;;;;;;;;;;;;4971831;28;19918;-48
2024/03/31 19:47:11;;;;;;;;;;;;;;;;;;4970908;28;19915;-47
2024/03/31 19:49:37;;;;;;;;;;;;;;;;;;4967325;28;19922;-48
2024/03/31 19:52:03;;;;;;;;;;;;;;;;;;4954416;28;20009;-48
2024/03/31 19:54:30;;;;;;;;;;;;;;;;;;4971306;28;19964;-49
2024/03/31 19:56:56;;;;;;;;;;;;;;;;;;4971407;28;19915;-49
2024/03/31 19:59:22;;;;;;;;;;;;;;;;;;4963705;28;19969;-49
2024/03/31 20:01:48;;;;;;;;;;;;;;;;;;4970052;28;19921;-49
2024/03/31 20:04:18;;;;;;;;;;;;;;;;;;4970799;28;19966;-46
2024/03/31 20:06:44;;;;;;;;;;;;;;;;;;4970096;28;19921;-49
2024/03/31 20:09:10;;;;;;;;;;;;;;;;;;4955704;28;19914;-49
2024/03/31 20:11:35;;;;;;;;;;;;;;;;;;4970054;28;19921;-47
2024/03/31 20:14:01;;;;;;;;;;;;;;;;;;4968515;28;20679;-47
2024/03/31 20:16:27;;;;;;;;;;;;;;;;;;4968437;28;20057;-46
2024/03/31 20:18:53;;;;;;;;;;;;;;;;;;4970168;28;20001;-47
2024/03/31 20:21:19;;;;;;;;;;;;;;;;;;4970017;28;19922;-49
2024/03/31 20:23:45;;;;;;;;;;;;;;;;;;4967361;28;19941;-47
2024/03/31 20:26:11;;;;;;;;;;;;;;;;;;4951797;28;19989;-49
2024/03/31 20:28:37;;;;;;;;;;;;;;;;;;4970288;28;19914;-48
2024/03/31 20:31:05;;;;;;;;;;;;;;;;;;4971678;28;19914;-48
2024/03/31 20:33:31;;;;;;;;;;;;;;;;;;4944730;28;20404;-45
2024/03/31 20:35:57;;;;;;;;;;;;;;;;;;4970148;28;20005;-47
2024/03/31 20:38:23;;;;;;;;;;;;;;;;;;4969868;28;19914;-46
2024/03/31 20:40:49;;;;;;;;;;;;;;;;;;4971413;28;19926;-48
2024/03/31 20:43:15;;;;;;;;;;;;;;;;;;4970281;28;19921;-48
2024/03/31 20:45:41;;;;;;;;;;;;;;;;;;4970890;28;19997;-48
2024/03/31 20:48:06;;;;;;;;;;;;;;;;;;4969476;28;19914;-48
2024/03/31 20:50:32;;;;;;;;;;;;;;;;;;4969412;28;19968;-49
2024/03/31 20:52:58;;;;;;;;;;;;;;;;;;4971604;28;19920;-47
2024/03/31 20:55:24;;;;;;;;;;;;;;;;;;4972333;28;19910;-48
2024/03/31 20:57:50;;;;;;;;;;;;;;;;;;4969412;28;19914;-49
2024/03/31 21:00:17;;;;;;;;;;;;;;;;;;4951758;28;19914;-50
2024/03/31 21:02:42;;;;;;;;;;;;;;;;;;4971138;28;20000;-50
2024/03/31 21:05:09;;;;;;;;;;;;;;;;;;4968943;28;19923;-46
2024/03/31 21:07:34;;;;;;;;;;;;;;;;;;4969824;28;19918;-48
2024/03/31 21:10:00;;;;;;;;;;;;;;;;;;4968628;28;20331;-47
2024/03/31 21:12:26;;;;;;;;;;;;;;;;;;4957905;28;19921;-49
2024/03/31 21:14:52;;;;;;;;;;;;;;;;;;4968523;28;20405;-46
2024/03/31 21:17:18;;;;;;;;;;;;;;;;;;4968526;28;19924;-48
2024/03/31 21:19:45;;;;;;;;;;;;;;;;;;4970017;28;19921;-49
2024/03/31 21:22:10;;;;;;;;;;;;;;;;;;4971024;28;19932;-46
2024/03/31 21:24:36;;;;;;;;;;;;;;;;;;4969704;28;20366;-46
2024/03/31 21:27:07;;;;;;;;;;;;;;;;;;4967772;28;19914;-47
2024/03/31 21:29:33;;;;;;;;;;;;;;;;;;4969663;28;20303;-46
2024/03/31 21:31:59;;;;;;;;;;;;;;;;;;4970493;28;19914;-48
2024/03/31 21:34:24;;;;;;;;;;;;;;;;;;4966944;28;19914;-49
2024/03/31 21:36:50;;;;;;;;;;;;;;;;;;4952003;28;19938;-45
2024/03/31 21:39:16;;;;;;;;;;;;;;;;;;4960669;28;19914;-49
2024/03/31 21:41:42;;;;;;;;;;;;;;;;;;4971485;28;19915;-47
2024/03/31 21:44:08;;;;;;;;;;;;;;;;;;4971564;28;19925;-48
2024/03/31 21:46:34;;;;;;;;;;;;;;;;;;4964560;28;19973;-47
2024/03/31 21:49:00;;;;;;;;;;;;;;;;;;4953306;29;20029;-48
2024/03/31 21:51:26;;;;;;;;;;;;;;;;;;4964118;28;19914;-46
2024/03/31 21:53:51;;;;;;;;;;;;;;;;;;4970495;28;19919;-46
2024/03/31 21:56:17;;;;;;;;;;;;;;;;;;4969907;28;20331;-47
2024/03/31 21:58:43;;;;;;;;;;;;;;;;;;4971990;28;19917;-46